createdAt,value
2018-03-28T00:01:57.404Z,30.77
2018-03-28T00:04:23.654Z,27.13
2018-03-28T00:06:49.884Z,29.90
2018-03-28T00:09:16.148Z,26.57
2018-03-28T00:11:42.424Z,26.97
2018-03-28T00:14:08.607Z,26.73
2018-03-28T00:16:35.791Z,26.07
2018-03-28T00:19:02.014Z,26.00
2018-03-28T00:21:28.256Z,28.07
2018-03-28T00:23:55.590Z,26.33
2018-03-28T00:26:21.997Z,27.37
2018-03-28T00:28:48.221Z,26.07
2018-03-28T00:31:14.502Z,27.00
2018-03-28T00:33:40.715Z,23.77
2018-03-28T00:36:06.972Z,23.20
2018-03-28T00:38:34.932Z,25.23
2018-03-28T00:41:01.114Z,24.70
2018-03-28T00:43:28.020Z,23.70
2018-03-28T00:45:54.193Z,22.60
2018-03-28T00:48:21.122Z,23.90
2018-03-28T00:50:47.294Z,24.87
2018-03-28T00:53:14.227Z,23.47
2018-03-28T00:55:40.473Z,23.37
2018-03-28T00:58:06.752Z,24.50
2018-03-28T01:00:32.973Z,23.33
2018-03-28T01:02:59.217Z,23.83
2018-03-28T01:05:26.178Z,21.60
2018-03-28T01:07:54.247Z,23.80
2018-03-28T01:10:20.490Z,24.20
2018-03-28T01:12:46.770Z,24.60
2018-03-28T01:15:12.966Z,26.47
2018-03-28T01:17:39.144Z,25.60
2018-03-28T01:20:06.091Z,23.63
2018-03-28T01:22:34.341Z,21.67
2018-03-28T01:25:00.550Z,22.90
2018-03-28T01:27:26.766Z,21.70
2018-03-28T01:29:52.986Z,22.73
2018-03-28T01:32:19.254Z,24.80
2018-03-28T01:34:45.469Z,24.50
2018-03-28T01:37:12.507Z,21.27
2018-03-28T01:39:47.476Z,23.47
2018-03-28T01:42:13.761Z,24.03
2018-03-28T01:44:39.985Z,23.20
2018-03-28T01:47:06.214Z,23.63
2018-03-28T01:49:33.981Z,24.23
2018-03-28T01:52:00.256Z,24.07
2018-03-28T01:54:28.573Z,22.50
2018-03-28T01:56:54.713Z,22.37
2018-03-28T01:59:22.772Z,25.10
2018-03-28T02:01:48.991Z,23.50
2018-03-28T02:04:16.656Z,22.97
2018-03-28T02:06:42.796Z,22.77
2018-03-28T02:09:10.936Z,21.70
2018-03-28T02:11:37.865Z,21.63
2018-03-28T02:14:04.112Z,22.37
2018-03-28T02:16:31.053Z,24.37
2018-03-28T02:18:57.325Z,23.20
2018-03-28T02:21:23.549Z,20.47
2018-03-28T02:23:49.805Z,23.20
2018-03-28T02:26:16.024Z,23.40
2018-03-28T02:28:42.282Z,22.77
2018-03-28T02:31:08.818Z,22.47
2018-03-28T02:33:35.055Z,21.90
2018-03-28T02:36:02.061Z,20.80
2018-03-28T02:38:28.252Z,20.43
2018-03-28T02:40:56.337Z,22.17
2018-03-28T02:43:22.504Z,22.20
2018-03-28T02:45:48.757Z,20.33
2018-03-28T02:48:15.693Z,20.27
2018-03-28T02:50:42.212Z,21.20
2018-03-28T02:53:08.380Z,20.83
2018-03-28T02:55:34.645Z,18.90
2018-03-28T02:58:00.852Z,18.97
2018-03-28T03:00:27.017Z,19.87
2018-03-28T03:02:53.240Z,19.33
2018-03-28T03:05:19.512Z,19.57
2018-03-28T03:07:46.445Z,18.67
2018-03-28T03:10:14.562Z,17.40
2018-03-28T03:12:40.777Z,18.00
2018-03-28T03:15:07.016Z,17.80
2018-03-28T03:17:33.181Z,19.50
2018-03-28T03:19:59.400Z,19.17
2018-03-28T03:22:25.664Z,20.13
2018-03-28T03:24:52.608Z,17.67
2018-03-28T03:27:19.594Z,15.87
2018-03-28T03:29:45.801Z,17.90
2018-03-28T03:32:12.077Z,18.17
2018-03-28T03:34:38.313Z,17.00
2018-03-28T03:37:04.613Z,19.03
2018-03-28T03:39:31.492Z,16.73
2018-03-28T03:41:57.759Z,16.53
2018-03-28T03:44:23.970Z,16.90
2018-03-28T03:46:52.365Z,17.47
2018-03-28T03:49:19.320Z,16.47
2018-03-28T03:51:46.761Z,17.10
2018-03-28T03:54:13.662Z,17.07
2018-03-28T03:56:41.907Z,18.30
2018-03-28T03:59:09.217Z,17.00
2018-03-28T04:01:37.128Z,17.30
2018-03-28T04:04:03.341Z,18.63
2018-03-28T04:06:29.592Z,17.67
2018-03-28T04:08:56.116Z,17.90
2018-03-28T04:11:22.273Z,17.03
2018-03-28T04:13:48.502Z,17.83
2018-03-28T04:16:14.676Z,17.40
2018-03-28T04:18:41.637Z,16.70
2018-03-28T04:21:08.676Z,17.30
2018-03-28T04:23:34.955Z,18.13
2018-03-28T04:26:01.160Z,16.30
2018-03-28T04:28:27.425Z,16.83
2018-03-28T04:30:54.913Z,17.67
2018-03-28T04:33:22.292Z,16.80
2018-03-28T04:36:03.438Z,19.17
2018-03-28T04:38:30.616Z,18.27
2018-03-28T04:40:56.844Z,18.00
2018-03-28T04:43:23.012Z,17.67
2018-03-28T04:45:49.213Z,16.40
2018-03-28T04:48:15.397Z,18.90
2018-03-28T04:50:42.425Z,17.73
2018-03-28T04:53:08.763Z,19.33
2018-03-28T04:55:35.021Z,20.30
2018-03-28T04:58:01.332Z,19.70
2018-03-28T05:00:28.341Z,18.80
2018-03-28T05:02:54.701Z,20.27
2018-03-28T05:05:23.080Z,19.03
2018-03-28T05:07:49.317Z,18.63
2018-03-28T05:10:15.622Z,19.00
2018-03-28T05:12:41.799Z,19.00
2018-03-28T05:15:08.056Z,20.47
2018-03-28T05:17:35.021Z,20.40
2018-03-28T05:20:01.302Z,19.57
2018-03-28T05:22:27.554Z,21.90
2018-03-28T05:24:53.909Z,21.43
2018-03-28T05:27:20.065Z,21.30
2018-03-28T05:29:47.019Z,20.60
2018-03-28T05:32:14.336Z,19.93
2018-03-28T05:34:40.553Z,21.37
2018-03-28T05:37:06.788Z,21.23
2018-03-28T05:39:33.041Z,20.77
2018-03-28T05:41:59.270Z,20.77
2018-03-28T05:44:26.217Z,22.63
2018-03-28T05:46:54.344Z,23.30
2018-03-28T05:49:20.537Z,21.80
2018-03-28T05:51:48.901Z,22.50
2018-03-28T05:54:15.793Z,24.40
2018-03-28T05:56:42.081Z,24.17
2018-03-28T05:59:09.020Z,25.03
2018-03-28T06:01:35.977Z,23.03
2018-03-28T06:04:02.939Z,24.07
2018-03-28T06:06:31.024Z,23.83
2018-03-28T06:08:57.248Z,21.70
2018-03-28T06:11:23.533Z,24.70
2018-03-28T06:13:50.440Z,24.33
2018-03-28T06:16:16.722Z,25.77
2018-03-28T06:18:44.058Z,25.97
2018-03-28T06:21:10.338Z,24.50
2018-03-28T06:23:36.545Z,25.70
2018-03-28T06:26:04.728Z,25.73
2018-03-28T06:28:30.860Z,25.70
2018-03-28T06:30:57.102Z,26.97
2018-03-28T06:33:25.554Z,26.33
2018-03-28T06:35:51.803Z,27.00
2018-03-28T06:38:18.021Z,26.43
2018-03-28T06:40:44.242Z,25.90
2018-03-28T06:43:10.525Z,26.50
2018-03-28T06:45:36.722Z,27.57
2018-03-28T06:48:02.999Z,28.50
2018-03-28T06:50:29.923Z,27.57
2018-03-28T06:52:56.189Z,27.17
2018-03-28T06:55:22.405Z,27.27
2018-03-28T06:57:49.397Z,26.23
2018-03-28T07:00:15.601Z,26.60
2018-03-28T07:02:41.760Z,27.60
2018-03-28T07:05:07.993Z,26.70
2018-03-28T07:07:34.308Z,27.07
2018-03-28T07:10:01.345Z,27.70
2018-03-28T07:12:27.585Z,25.93
2018-03-28T07:14:53.772Z,26.50
2018-03-28T07:17:20.741Z,26.80
2018-03-28T07:19:46.996Z,27.20
2018-03-28T07:22:13.226Z,26.80
2018-03-28T07:24:40.854Z,24.60
2018-03-28T07:27:07.051Z,25.17
2018-03-28T07:29:34.032Z,24.97
2018-03-28T07:32:00.246Z,28.57
2018-03-28T07:34:26.523Z,27.83
2018-03-28T07:36:52.733Z,27.00
2018-03-28T07:39:18.989Z,28.30
2018-03-28T07:41:45.220Z,25.83
2018-03-28T07:44:11.473Z,27.30
2018-03-28T07:46:38.417Z,25.97
2018-03-28T07:49:05.389Z,26.47
2018-03-28T07:51:31.666Z,25.57
2018-03-28T07:53:59.686Z,27.87
2018-03-28T07:56:25.873Z,26.07
2018-03-28T07:58:52.094Z,25.83
2018-03-28T08:01:19.524Z,27.03
2018-03-28T08:03:45.695Z,25.93
2018-03-28T08:06:13.070Z,26.90
2018-03-28T08:08:40.034Z,26.00
2018-03-28T08:11:06.297Z,26.80
2018-03-28T08:13:32.521Z,24.87
2018-03-28T08:15:58.776Z,24.47
2018-03-28T08:18:24.994Z,25.37
2018-03-28T08:20:51.253Z,22.60
2018-03-28T08:23:18.212Z,23.63
2018-03-28T08:25:46.072Z,25.07
2018-03-28T08:28:12.218Z,24.20
2018-03-28T08:30:41.564Z,22.77
2018-03-28T08:33:07.793Z,21.97
2018-03-28T08:35:34.058Z,22.90
2018-03-28T08:38:00.256Z,21.47
2018-03-28T08:40:26.561Z,22.03
2018-03-28T08:42:53.513Z,21.47
2018-03-28T08:45:19.722Z,21.23
2018-03-28T08:47:46.650Z,22.67
2018-03-28T08:50:12.843Z,21.43
2018-03-28T08:52:39.084Z,20.90
2018-03-28T08:55:06.028Z,21.57
2018-03-28T08:57:33.017Z,23.33
2018-03-28T08:59:59.242Z,22.10
2018-03-28T09:02:25.493Z,23.00
2018-03-28T09:04:51.707Z,22.77
2018-03-28T09:07:19.099Z,24.37
2018-03-28T09:09:45.305Z,22.23
2018-03-28T09:12:11.576Z,20.20
2018-03-28T09:14:38.499Z,24.20
2018-03-28T09:17:04.681Z,22.10
2018-03-28T09:19:30.889Z,22.50
2018-03-28T09:21:57.209Z,22.00
2018-03-28T09:24:23.376Z,23.27
2018-03-28T09:26:49.664Z,23.87
2018-03-28T09:29:16.593Z,21.67
2018-03-28T09:31:43.536Z,23.47
2018-03-28T09:34:10.509Z,22.70
2018-03-28T09:36:36.755Z,24.50
2018-03-28T09:39:03.984Z,20.37
2018-03-28T09:41:30.153Z,24.13
2018-03-28T09:43:59.539Z,23.57
2018-03-28T09:46:25.707Z,22.90
2018-03-28T09:48:53.605Z,26.00
2018-03-28T09:51:19.825Z,24.93
2018-03-28T09:53:46.798Z,24.87
2018-03-28T09:56:13.045Z,20.30
2018-03-28T09:58:39.345Z,23.77
2018-03-28T10:01:07.411Z,25.13
2018-03-28T10:03:33.641Z,29.70
2018-03-28T10:05:59.842Z,25.90
2018-03-28T10:08:26.684Z,27.90
2018-03-28T10:10:52.332Z,26.27
2018-03-28T10:13:18.620Z,22.23
2018-03-28T10:15:44.808Z,22.20
2018-03-28T10:18:11.051Z,22.07
2018-03-28T10:20:37.230Z,22.50
2018-03-28T10:23:04.168Z,20.90
2018-03-28T10:25:31.145Z,22.43
2018-03-28T10:27:57.368Z,21.97
2018-03-28T10:30:25.134Z,22.37
2018-03-28T10:32:51.388Z,22.13
2018-03-28T10:35:17.658Z,19.23
2018-03-28T10:37:44.593Z,19.40
2018-03-28T10:40:10.861Z,18.77
2018-03-28T10:42:37.076Z,19.63
2018-03-28T10:45:03.542Z,19.77
2018-03-28T10:47:29.770Z,19.73
2018-03-28T10:49:57.628Z,21.03
2018-03-28T10:52:23.882Z,20.40
2018-03-28T10:55:05.084Z,21.20
2018-03-28T10:57:31.313Z,19.77
2018-03-28T10:59:57.621Z,20.60
2018-03-28T11:02:23.812Z,23.33
2018-03-28T11:04:50.047Z,22.73
2018-03-28T11:07:16.313Z,22.00
2018-03-28T11:09:42.513Z,21.83
2018-03-28T11:12:09.733Z,22.37
2018-03-28T11:14:36.004Z,22.47
2018-03-28T11:17:02.353Z,23.73
2018-03-28T11:19:28.510Z,20.27
2018-03-28T11:21:55.526Z,21.07
2018-03-28T11:24:21.718Z,21.10
2018-03-28T11:26:47.985Z,22.63
2018-03-28T11:29:14.206Z,23.77
2018-03-28T11:31:41.201Z,22.43
2018-03-28T11:34:07.441Z,22.57
2018-03-28T11:36:33.678Z,23.30
2018-03-28T11:38:59.907Z,23.70
2018-03-28T11:41:30.711Z,23.50
2018-03-28T11:44:04.666Z,25.07
2018-03-28T11:46:39.389Z,22.37
2018-03-28T11:49:06.468Z,21.67
2018-03-28T11:51:32.841Z,24.33
2018-03-28T11:53:59.057Z,26.20
2018-03-28T11:56:26.964Z,22.60
2018-03-28T11:58:53.215Z,24.40
2018-03-28T12:01:20.858Z,23.60
2018-03-28T12:03:48.286Z,25.37
2018-03-28T12:06:14.478Z,24.87
2018-03-28T12:08:42.194Z,24.60
2018-03-28T12:11:08.392Z,23.17
2018-03-28T12:13:35.384Z,24.50
2018-03-28T12:16:01.652Z,25.23
2018-03-28T12:18:27.856Z,26.27
2018-03-28T12:20:54.107Z,24.97
2018-03-28T12:23:25.405Z,26.17
2018-03-28T12:25:51.571Z,24.60
2018-03-28T12:28:17.758Z,26.23
2018-03-28T12:30:43.978Z,26.50
2018-03-28T12:33:11.877Z,28.23
2018-03-28T12:35:38.101Z,29.30
2018-03-28T12:38:05.949Z,29.23
2018-03-28T12:40:32.181Z,27.83
2018-03-28T12:42:58.360Z,28.63
2018-03-28T12:45:25.370Z,28.07
2018-03-28T12:47:51.549Z,29.90
2018-03-28T12:50:19.693Z,27.40
2018-03-28T12:52:46.625Z,29.47
2018-03-28T12:55:12.861Z,29.00
2018-03-28T12:57:39.102Z,28.87
2018-03-28T13:00:05.357Z,29.90
2018-03-28T13:02:31.578Z,24.97
2018-03-28T13:04:59.329Z,27.20
2018-03-28T13:07:26.845Z,27.17
2018-03-28T13:09:53.084Z,24.00
2018-03-28T13:12:19.302Z,19.63
2018-03-28T13:14:45.557Z,24.47
2018-03-28T13:17:11.789Z,27.87
2018-03-28T13:19:38.066Z,26.20
2018-03-28T13:22:04.269Z,25.87
2018-03-28T13:24:34.301Z,21.80
2018-03-28T13:27:00.799Z,21.83
2018-03-28T13:29:27.065Z,21.63
2018-03-28T13:31:53.565Z,22.30
2018-03-28T13:34:19.802Z,23.40
2018-03-28T13:36:46.788Z,17.20
2018-03-28T13:39:12.985Z,21.87
2018-03-28T13:41:39.964Z,22.00
2018-03-28T13:44:06.197Z,22.40
2018-03-28T13:46:32.451Z,24.60
2018-03-28T13:48:58.666Z,22.90
2018-03-28T13:51:24.952Z,23.30
2018-03-28T13:53:51.157Z,22.40
2018-03-28T13:56:17.316Z,22.73
2018-03-28T13:58:43.537Z,24.33
2018-03-28T14:01:09.698Z,23.70
2018-03-28T14:03:35.927Z,24.60
2018-03-28T14:06:05.228Z,24.80
2018-03-28T14:08:31.374Z,24.80
2018-03-28T14:10:58.389Z,25.30
2018-03-28T14:13:24.667Z,25.70
2018-03-28T14:15:52.564Z,25.53
2018-03-28T14:18:18.839Z,22.90
2018-03-28T14:20:45.058Z,26.27
2018-03-28T14:23:11.328Z,24.77
2018-03-28T14:25:38.263Z,24.97
2018-03-28T14:28:04.530Z,25.17
2018-03-28T14:30:30.750Z,27.93
2018-03-28T14:32:57.038Z,26.50
2018-03-28T14:35:23.231Z,25.67
2018-03-28T14:37:49.515Z,28.93
2018-03-28T14:40:16.446Z,26.70
2018-03-28T14:42:54.585Z,28.60
2018-03-28T14:45:10.150Z,28.50
2018-03-28T14:47:38.341Z,28.20
2018-03-28T14:50:04.613Z,28.20
2018-03-28T14:52:30.878Z,28.80
2018-03-28T14:54:57.776Z,29.10
2018-03-28T14:57:24.043Z,27.17
2018-03-28T14:59:50.264Z,26.83
2018-03-28T15:02:16.548Z,25.33
2018-03-28T15:04:42.740Z,24.07
2018-03-28T15:07:09.729Z,27.27
2018-03-28T15:09:36.198Z,29.70
2018-03-28T15:12:02.398Z,25.97
2018-03-28T15:14:28.617Z,25.70
2018-03-28T15:16:54.793Z,27.87
2018-03-28T15:19:21.062Z,27.63
2018-03-28T15:21:47.285Z,28.80
2018-03-28T15:24:15.015Z,26.70
2018-03-28T15:26:41.182Z,28.93
2018-03-28T15:29:09.435Z,27.77
2018-03-28T15:31:37.562Z,26.83
2018-03-28T15:34:05.638Z,23.37
2018-03-28T15:36:31.880Z,28.50
2018-03-28T15:38:59.779Z,25.23
2018-03-28T15:41:26.648Z,25.60
2018-03-28T15:43:54.077Z,25.73
2018-03-28T15:46:20.957Z,28.10
2018-03-28T15:48:47.929Z,25.53
2018-03-28T15:51:14.113Z,27.40
2018-03-28T15:53:40.277Z,23.83
2018-03-28T15:56:07.169Z,26.83
2018-03-28T15:58:33.315Z,25.87
2018-03-28T16:00:59.501Z,29.30
2018-03-28T16:03:26.445Z,27.27
2018-03-28T16:05:54.989Z,26.20
2018-03-28T16:08:21.221Z,27.50
2018-03-28T16:10:49.346Z,26.50
2018-03-28T16:13:16.281Z,27.77
2018-03-28T16:15:43.292Z,25.80
2018-03-28T16:18:10.193Z,23.57
2018-03-28T16:20:36.361Z,24.57
2018-03-28T16:23:02.593Z,27.00
2018-03-28T16:25:28.835Z,26.70
2018-03-28T16:27:55.080Z,27.50
2018-03-28T16:30:22.032Z,26.10
2018-03-28T16:32:48.981Z,23.33
2018-03-28T16:35:15.973Z,28.07
2018-03-28T16:37:42.180Z,27.67
2018-03-28T16:40:08.321Z,27.20
2018-03-28T16:42:37.637Z,25.10
2018-03-28T16:45:03.905Z,24.67
2018-03-28T16:47:31.998Z,25.67
2018-03-28T16:49:58.263Z,26.37
2018-03-28T16:52:25.168Z,27.23
2018-03-28T16:54:51.393Z,26.80
2018-03-28T16:57:17.619Z,25.87
2018-03-28T16:59:43.780Z,25.50
2018-03-28T17:02:09.953Z,25.50
2018-03-28T17:04:36.884Z,25.57
2018-03-28T17:07:03.082Z,23.90
2018-03-28T17:09:29.273Z,24.63
2018-03-28T17:11:55.529Z,23.17
2018-03-28T17:14:21.748Z,25.87
2018-03-28T17:16:49.222Z,24.13
2018-03-28T17:19:15.363Z,24.60
2018-03-28T17:21:45.416Z,24.10
2018-03-28T17:24:12.365Z,24.67
2018-03-28T17:26:39.317Z,20.43
2018-03-28T17:29:08.210Z,21.47
2018-03-28T17:31:34.832Z,22.90
2018-03-28T17:34:02.225Z,21.30
2018-03-28T17:36:28.719Z,21.77
2018-03-28T17:38:55.670Z,23.03
2018-03-28T17:41:22.883Z,23.00
2018-03-28T17:43:49.481Z,21.60
2018-03-28T17:46:16.174Z,23.10
2018-03-28T17:48:42.925Z,24.20
2018-03-28T17:51:10.171Z,21.80
2018-03-28T17:53:37.478Z,22.07
2018-03-28T17:56:04.305Z,22.53
2018-03-28T17:58:31.873Z,23.03
2018-03-28T18:00:58.241Z,20.60
2018-03-28T18:03:24.811Z,20.30
2018-03-28T18:05:52.152Z,20.03
2018-03-28T18:08:19.617Z,24.60
2018-03-28T18:10:46.849Z,20.60
2018-03-28T18:13:15.310Z,24.13
2018-03-28T18:15:42.039Z,24.80
2018-03-28T18:18:08.932Z,26.30
2018-03-28T18:20:36.353Z,21.33
2018-03-28T18:23:03.725Z,21.07
2018-03-28T18:25:30.237Z,21.47
2018-03-28T18:27:56.469Z,23.13
2018-03-28T18:30:23.392Z,21.47
2018-03-28T18:32:51.942Z,21.13
2018-03-28T18:35:19.480Z,20.50
2018-03-28T18:37:47.259Z,20.17
2018-03-28T18:40:13.454Z,18.47
2018-03-28T18:42:39.586Z,21.10
2018-03-28T18:45:06.995Z,21.47
2018-03-28T18:47:33.141Z,23.20
2018-03-28T18:50:01.304Z,20.60
2018-03-28T18:52:27.433Z,19.43
2018-03-28T18:54:53.693Z,19.40
2018-03-28T18:57:19.851Z,17.97
2018-03-28T18:59:46.789Z,21.90
2018-03-28T19:02:12.938Z,18.80
2018-03-28T19:04:39.814Z,22.03
2018-03-28T19:07:05.976Z,20.57
2018-03-28T19:09:32.097Z,21.70
2018-03-28T19:11:59.700Z,20.00
2018-03-28T19:14:25.900Z,19.67
2018-03-28T19:16:52.062Z,21.00
2018-03-28T19:19:18.197Z,22.20
2018-03-28T19:21:45.496Z,21.00
2018-03-28T19:24:11.633Z,19.00
2018-03-28T19:26:37.792Z,22.17
2018-03-28T19:29:03.948Z,21.03
2018-03-28T19:31:31.953Z,20.67
2018-03-28T19:33:58.873Z,18.97
2018-03-28T19:36:25.073Z,19.10
2018-03-28T19:38:51.239Z,20.73
2018-03-28T19:41:17.404Z,22.93
2018-03-28T19:43:44.326Z,21.00
2018-03-28T19:46:10.477Z,23.83
2018-03-28T19:48:36.613Z,21.70
2018-03-28T19:51:02.810Z,21.30
2018-03-28T19:53:29.690Z,22.60
2018-03-28T19:55:55.862Z,20.90
2018-03-28T19:58:22.025Z,22.60
2018-03-28T20:00:48.904Z,21.70
2018-03-28T20:03:15.062Z,20.83
2018-03-28T20:05:41.222Z,21.37
2018-03-28T20:08:09.809Z,23.30
2018-03-28T20:10:35.964Z,22.50
2018-03-28T20:13:02.117Z,23.70
2018-03-28T20:15:28.263Z,22.87
2018-03-28T20:17:54.417Z,22.80
2018-03-28T20:20:20.558Z,24.17
2018-03-28T20:22:46.736Z,21.27
2018-03-28T20:25:12.874Z,23.70
2018-03-28T20:27:39.770Z,24.00
2018-03-28T20:30:05.921Z,24.60
2018-03-28T20:32:32.122Z,22.87
2018-03-28T20:34:58.253Z,22.60
2018-03-28T20:37:24.640Z,24.40
2018-03-28T20:39:51.521Z,25.23
2018-03-28T20:42:19.545Z,22.60
2018-03-28T20:44:46.422Z,23.93
2018-03-28T20:47:12.558Z,26.53
2018-03-28T20:49:40.601Z,26.83
2018-03-28T20:52:07.469Z,23.20
2018-03-28T20:54:33.620Z,25.93
2018-03-28T20:56:59.758Z,28.00
2018-03-28T20:59:26.721Z,25.30
2018-03-28T21:01:53.608Z,27.23
2018-03-28T21:04:19.756Z,21.37
2018-03-28T21:06:45.893Z,27.23
2018-03-28T21:09:12.061Z,27.17
2018-03-28T21:11:38.966Z,26.70
2018-03-28T21:14:05.166Z,28.90
2018-03-28T21:16:31.350Z,29.10
2018-03-28T21:18:58.249Z,29.87
2018-03-28T21:21:24.412Z,30.27
2018-03-28T21:23:51.916Z,31.13
2018-03-28T21:26:18.115Z,26.83
2018-03-28T21:28:46.273Z,22.77
2018-03-28T21:31:12.409Z,29.53
2018-03-28T21:33:39.302Z,29.57
2018-03-28T21:36:05.496Z,30.70
2018-03-28T21:38:31.649Z,30.40
2018-03-28T21:40:57.796Z,26.77
2018-03-28T21:43:24.673Z,27.60
2018-03-28T21:45:51.634Z,28.60
2018-03-28T21:48:17.842Z,26.20
2018-03-28T21:50:44.001Z,26.57
2018-03-28T21:53:10.140Z,26.60
2018-03-28T21:55:36.305Z,27.53
2018-03-28T21:58:02.456Z,23.70
2018-03-28T22:00:29.360Z,24.23
2018-03-28T22:02:55.511Z,26.00
2018-03-28T22:05:21.664Z,26.10
2018-03-28T22:07:47.810Z,24.20
2018-03-28T22:10:15.237Z,24.43
2018-03-28T22:12:42.114Z,23.90
2018-03-28T22:15:08.273Z,23.27
2018-03-28T22:17:34.482Z,22.60
2018-03-28T22:20:01.807Z,24.00
2018-03-28T22:22:27.970Z,22.00
2018-03-28T22:24:54.101Z,21.30
2018-03-28T22:27:20.257Z,21.90
2018-03-28T22:29:46.389Z,22.43
2018-03-28T22:32:15.249Z,22.37
2018-03-28T22:34:41.396Z,23.97
2018-03-28T22:37:07.544Z,22.80
2018-03-28T22:39:34.410Z,20.73
2018-03-28T22:42:15.518Z,21.73
2018-03-28T22:44:41.657Z,19.80
2018-03-28T22:47:09.465Z,22.17
2018-03-28T22:49:35.596Z,19.90
2018-03-28T22:52:01.749Z,22.60
2018-03-28T22:54:27.877Z,22.07
2018-03-28T22:56:54.037Z,24.10
2018-03-28T22:59:20.164Z,22.43
2018-03-28T23:01:46.329Z,23.80
2018-03-28T23:04:12.462Z,24.37
2018-03-28T23:06:38.692Z,24.40
2018-03-28T23:09:04.866Z,27.10
2018-03-28T23:11:31.390Z,20.30
2018-03-28T23:13:58.679Z,21.97
2018-03-28T23:16:25.149Z,19.77
2018-03-28T23:18:51.570Z,23.77
2018-03-28T23:21:17.948Z,21.67
2018-03-28T23:23:46.046Z,23.00
2018-03-28T23:26:13.692Z,25.07
2018-03-28T23:28:40.685Z,24.90
2018-03-28T23:31:07.128Z,25.40
2018-03-28T23:33:33.362Z,26.00
2018-03-28T23:35:59.564Z,24.40
2018-03-28T23:38:28.435Z,24.40
2018-03-28T23:40:55.347Z,25.00
2018-03-28T23:43:21.626Z,25.63
2018-03-28T23:45:47.829Z,23.47
2018-03-28T23:48:14.818Z,23.00
2018-03-28T23:50:41.024Z,23.80
2018-03-28T23:53:07.202Z,21.20
2018-03-28T23:55:33.413Z,21.17
2018-03-28T23:57:59.641Z,21.57
